Racecast

Dawit Fesseha

East Bay Heat Track Club (CA) · - · Compare head to head

Athlete rating 115.2 2016 TF season
Best race 115.3 TF
Races 80
Seasons 6 2014 — 2019
Rating scale ?
Speed rating — all races

Track & Field

TF speed rating

2019 TF

East Bay Heat Track Club (CA) · Grade -

Date Meet Event Result Place Rating Difficulty PR/SR Flags
2019-07-07 USATF Region 16 Junior Olympic Championships 200m 24.98 39th · 1st on team -0.024
2019-07-07 USATF Region 16 Junior Olympic Championships 100m 12.29 36th · 1st on team -0.024
2019-06-23 Shor/Shepard 200m 25.24 23rd · 1st on team -0.035
2019-06-23 Shor/Shepard 100m 12.26 27th · 1st on team -0.035
2019-06-01 Tommie Smith Youth Meet 100m 12.09 8th · 1st on team -0.036 ★PR SR
2019-06-01 Tommie Smith Youth Meet 200m 24.75 5th · 1st on team -0.036
2019-05-26 Tom Moore Youth Invitational (Central Valley Roadrunners) 200m 24.27 12th · 1st on team -0.023 ★PR SR
2019-05-26 Tom Moore Youth Invitational (Central Valley Roadrunners) 200m 24.65 21st · 2nd on team -0.023

2018 TF

East Bay Heat Track Club (CA) · Grade -

Date Meet Event Result Place Rating Difficulty PR/SR Flags
2018-05-27 Tom Moore Youth Invitational 200m 25.19 15th · 1st on team -0.023 PR SR
2018-05-27 Tom Moore Youth Invitational 200m 25.4 19th · 2nd on team -0.023
2018-05-19 Tommie Smith Youth Meet lj DNS -0.036
2018-05-19 Tommie Smith Youth Meet 400m 57.19 4th · 1st on team -0.036 ★PR SR
2018-05-19 Tommie Smith Youth Meet 200m 26.08 6th · 1st on team -0.036
2018-05-19 Tommie Smith Youth Meet 100m 13.08 9th · 1st on team -0.036
2018-05-05 Running Rebels meet 200m 25.67 15th · 1st on team -0.034 PR SR
2018-05-05 Running Rebels meet 400m 1:04.71 34th · 1st on team -0.034 SR
2018-05-05 Running Rebels meet 100m 12.54 16th · 1st on team -0.034 PR SR

2017 TF

Hilltop Speed (CA) · Grade -

Date Meet Event Result Place Rating Difficulty PR/SR Flags
2017-07-02 AAU West Coast National Championship 100m 13.06 11th · 2nd on team -0.001 PR SR
2017-07-02 AAU West Coast National Championship 200m 26.58 9th · 2nd on team -0.001
2017-07-02 AAU West Coast National Championship 200m 25.97 4th · 1st on team -0.001 PR SR
2017-07-02 AAU West Coast National Championship 100m 13.03 9th · 1st on team -0.001 PR SR
2017-06-16 2017 AAU Region 22 Junior Olympics 200m 26.5 3rd · 1st on team -0.023
2017-06-16 2017 AAU Region 22 Junior Olympics 100m 13.15 4th · 1st on team -0.023 PR SR
2017-05-21 Stockton Saints Invitational 200m 26.18 19th · 1st on team -0.027 PR SR
2017-05-21 Stockton Saints Invitational 100m 13.42 21st · 7th on team -0.027 PR SR

2016 TF 115.3

East Bay Heat Track Club (CA) · Grade -

Date Meet Event Result Place Rating Difficulty PR/SR Flags
2016-07-31 USATF National Junior Olympic Championships 200m 27.24 71st · 1st on team +0.012
2016-06-12 USATF Pacific Association Youth Championship lj 3.81m -0.035
2016-06-12 USATF Pacific Association Youth Championship 200m 27.87 6th · 2nd on team -0.035
2016-06-12 USATF Pacific Association Youth Championship 400m 1:03.1 1st · 1st on team -0.035 PR SR
2016-06-12 USATF Pacific Association Youth Championship 200m 26.84 2nd · 1st on team -0.035 PR SR
2016-06-04 M.P. Striders USATF Youth T&F Sectionals lj 13-08.00 -0.019
2016-06-04 M.P. Striders USATF Youth T&F Sectionals 200m 27.98 3rd · 1st on team -0.019
2016-05-15 3M USATF Youth T&F Meet lj 3.93m -0.028
2016-05-15 3M USATF Youth T&F Meet 200m 27.84 3rd · 1st on team -0.028
2016-05-01 Tommie Smith Invitational lj 12-00.00 -0.036
2016-05-01 Tommie Smith Invitational 400m 1:10.71 12th · 1st on team -0.036
2016-05-01 Tommie Smith Invitational 200m 27.78 3rd · 1st on team -0.036 PR SR
2016-04-17 CA Track Invitational lj 13-03.00 -0.025
2016-04-17 CA Track Invitational 400m 1:06.42 4th · 2nd on team -0.025 PR SR
2016-04-09 Contra Costa Cheetahs Invitational 800m 3:05.22 20th · 2nd on team 115.3 -0.017 ★R SR RSR
2016-04-09 Contra Costa Cheetahs Invitational 100m 13.99 5th · 2nd on team -0.017 PR SR

2015 TF 86.8

East Bay Heat Track Club (CA) · Grade -

Date Meet Event Result Place Rating Difficulty PR/SR Flags
2015-07-12 Hampton-Phillips Track Club lj 4.08m -0.024
2015-07-12 Hampton-Phillips Track Club 400m 1:12.51 7th · 1st on team -0.024
2015-07-12 Hampton-Phillips Track Club 200m 30.02 6th · 1st on team -0.024
2015-05-31 PAC (Pacific Association Youth Champions lj 3.62m -0.024
2015-05-31 PAC (Pacific Association Youth Champions 400m 1:15.4 17th · 1st on team -0.024
2015-05-23 LA Jets 2015 Invitational 800m 2:57.84 34th · 1st on team 84.8 -0.035
2015-05-23 LA Jets 2015 Invitational 400m 1:08.64 49th · 1st on team -0.035
2015-05-23 LA Jets 2015 Invitational 200m 28.77 25th · 1st on team -0.035
2015-05-16 3M Track Club Track and Field Invitation 200m 28.77 9th · 1st on team -0.028
2015-05-16 3M Track Club Track and Field Invitation 800m 2:56.42 19th · 3rd on team 86.2 -0.028
2015-05-16 3M Track Club Track and Field Invitation 400m 1:09.99 8th · 1st on team -0.028
2015-05-09 Stockton Saints Track Club 800m 2:49.54 4th · 2nd on team 90.0 -0.022
2015-05-09 Stockton Saints Track Club 200m 28.45 4th · 1st on team -0.022 PR SR
2015-05-09 Stockton Saints Track Club 400m 1:07.73 3rd · 1st on team -0.022 PR SR
2015-04-18 CA Track Club 400m 1:16.53 5th · 2nd on team -0.038
2015-04-18 CA Track Club 800m 3:21.52 3rd · 2nd on team 74.6 -0.038
2015-04-18 CA Track Club 200m 29.85 1st · 1st on team -0.038
2015-04-11 Big Valley Track Club Invitational 400m 1:10.93 13th · 2nd on team -0.027
2015-04-11 Big Valley Track Club Invitational 800m 2:47.32 12th · 3rd on team 91.1 -0.027 ★PR R SR RSR
2015-04-11 Big Valley Track Club Invitational 100m 14.07 11th · 1st on team -0.027 PR SR
2015-03-28 Contra Costa Cheetahs lj 13-03.00 -0.017
2015-03-28 Contra Costa Cheetahs 200m 29.36 6th · 1st on team -0.017 SR
2015-03-28 Contra Costa Cheetahs 800m 2:51.43 20th · 3rd on team 89.9 -0.017
2015-03-21 RPM Legacy 800m 2:48.9 7th · 2nd on team 90.8 -0.020 PR R SR RSR
2015-03-21 RPM Legacy 400m 1:07.79 13th · 1st on team -0.020 PR SR

2014 TF

East Bay Heat Track Club (CA) · Grade -

Date Meet Event Result Place Rating Difficulty PR/SR Flags
2014-05-31 Pacific Association Championships (PAC) 100m 14.52 12th · 2nd on team -0.024
2014-05-31 Pacific Association Championships (PAC) 200m 29.37 8th · 2nd on team -0.024
2014-05-31 Pacific Association Championships (PAC) 200m 28.72 5th · 1st on team -0.024
2014-05-31 Pacific Association Championships (PAC) 100m 14.51 11th · 1st on team -0.024
2014-05-25 Los Angeles Jets Invitational 400m 1:07.86 6th · 1st on team -0.028 PR SR
2014-05-25 Los Angeles Jets Invitational 200m 28.7 11th · 1st on team -0.028 PR SR
2014-05-25 Los Angeles Jets Invitational 100m 14.27 12th · 1st on team -0.028 PR SR
2014-04-05 Sacramento Speed Showcase lj 11-06.00 -0.033
2014-04-05 Sacramento Speed Showcase 200m 30.58 5th · 1st on team -0.033 PR SR
2014-04-05 Sacramento Speed Showcase 400m 1:14.89 10th · 1st on team -0.033
2014-03-29 East County Cheetahs TC 100m 15.28 6th · 1st on team -0.017
2014-03-22 RPM 100m 14.64 1st · 1st on team -0.012 PR SR
2014-03-22 RPM 400m 1:10.74 4th · 1st on team -0.012 PR SR
2014-02-16 Run for the Dream Youth Indoor 55m 8.59 2nd · 1st on team -0.025 ★PR SR